Terminal Aerodrome Forecast
Issued by NWS Topeka, KS

Home | Current Version | Previous Version | Text Only | Print | Product List | Glossary Off
Versions: 1 2 3 4 5 6 7 8 9 10 11 12 13 14 15 16 17 18 19 20

210
FTUS43 KTOP 220520
TAFTOP
TAF
KTOP 220520Z 2206/2306 33005KT P6SM -SHRA OVC090
     FM220700 33009KT P6SM SCT150 BKN200
     FM222300 20004KT P6SM SKC=

USA.gov is the U.S. government's official web portal to all federal, state and local government web resources and services.